createdAt,value
2018-12-03T00:00:20.758Z,13.13
2018-12-03T00:01:20.753Z,13.12
2018-12-03T00:02:20.786Z,13.15
2018-12-03T00:03:20.745Z,13.12
2018-12-03T00:04:20.742Z,13.13
2018-12-03T00:05:20.750Z,13.19
2018-12-03T00:06:20.736Z,13.16
2018-12-03T00:07:20.729Z,13.13
2018-12-03T00:08:20.726Z,13.11
2018-12-03T00:09:20.721Z,13.05
2018-12-03T00:10:20.720Z,13.08
2018-12-03T00:11:20.711Z,13.04
2018-12-03T00:12:20.707Z,13.09
2018-12-03T00:13:20.700Z,13.05
2018-12-03T00:14:20.698Z,13.15
2018-12-03T00:15:20.692Z,13.12
2018-12-03T00:16:20.692Z,13.08
2018-12-03T00:17:20.686Z,13.27
2018-12-03T00:18:20.682Z,13.16
2018-12-03T00:19:20.677Z,13.08
2018-12-03T00:20:20.672Z,13.11
2018-12-03T00:21:20.666Z,13.11
2018-12-03T00:22:20.663Z,13.15
2018-12-03T00:23:20.660Z,13.09
2018-12-03T00:24:20.653Z,13.04
2018-12-03T00:25:20.651Z,13.08
2018-12-03T00:26:20.647Z,13.15
2018-12-03T00:27:20.646Z,13.25
2018-12-03T00:28:20.639Z,13.18
2018-12-03T00:29:20.631Z,13.27
2018-12-03T00:30:20.629Z,13.11
2018-12-03T00:31:20.625Z,13.16
2018-12-03T00:32:20.620Z,13.23
2018-12-03T00:33:20.617Z,13.16
2018-12-03T00:34:20.612Z,13.16
2018-12-03T00:35:20.612Z,13.12
2018-12-03T00:36:20.603Z,13.09
2018-12-03T00:37:20.603Z,13.13
2018-12-03T00:38:20.610Z,13.15
2018-12-03T00:39:20.592Z,13.09
2018-12-03T00:40:20.587Z,13.08
2018-12-03T00:41:20.582Z,13.05
2018-12-03T00:42:20.586Z,13.12
2018-12-03T00:43:20.572Z,13.13
2018-12-03T00:44:20.568Z,13.04
2018-12-03T00:45:20.565Z,13.20
2018-12-03T00:46:20.564Z,13.00
2018-12-03T00:47:20.554Z,13.04
2018-12-03T00:48:20.552Z,13.00
2018-12-03T00:49:20.552Z,13.13
2018-12-03T00:50:20.544Z,13.18
2018-12-03T00:51:20.540Z,13.01
2018-12-03T00:52:20.536Z,13.15
2018-12-03T00:53:20.531Z,13.11
2018-12-03T00:54:20.528Z,13.13
2018-12-03T00:55:20.524Z,13.19
2018-12-03T00:56:20.518Z,13.18
2018-12-03T00:57:20.515Z,13.04
2018-12-03T00:58:20.511Z,13.16
2018-12-03T00:59:20.508Z,13.15
2018-12-03T01:00:20.503Z,13.00
2018-12-03T01:01:20.499Z,13.05
2018-12-03T01:02:20.495Z,13.16
2018-12-03T01:03:20.491Z,13.08
2018-12-03T01:04:20.488Z,13.12
2018-12-03T01:05:20.485Z,13.18
2018-12-03T01:06:20.477Z,13.15
2018-12-03T01:07:20.487Z,13.16
2018-12-03T01:08:20.469Z,13.04
2018-12-03T01:09:20.469Z,13.03
2018-12-03T01:10:20.462Z,13.01
2018-12-03T01:11:20.456Z,13.16
2018-12-03T01:12:20.453Z,13.13
2018-12-03T01:13:20.447Z,13.04
2018-12-03T01:14:20.445Z,13.08
2018-12-03T01:15:20.439Z,13.18
2018-12-03T01:16:20.436Z,12.98
2018-12-03T01:17:20.433Z,13.03
2018-12-03T01:18:20.432Z,13.08
2018-12-03T01:19:20.427Z,13.12
2018-12-03T01:20:20.421Z,13.19
2018-12-03T01:21:20.413Z,13.12
2018-12-03T01:22:20.410Z,13.13
2018-12-03T01:23:20.406Z,13.11
2018-12-03T01:24:20.402Z,13.15
2018-12-03T01:25:20.400Z,13.13
2018-12-03T01:26:20.393Z,13.16
2018-12-03T01:27:20.390Z,13.03
2018-12-03T01:28:20.384Z,13.04
2018-12-03T01:29:20.379Z,13.15
2018-12-03T01:30:20.377Z,13.12
2018-12-03T01:31:20.370Z,13.16
2018-12-03T01:32:20.368Z,13.15
2018-12-03T01:33:20.364Z,13.19
2018-12-03T01:34:20.361Z,13.13
2018-12-03T01:35:20.357Z,13.05
2018-12-03T01:36:20.353Z,13.12
2018-12-03T01:37:20.345Z,13.04
2018-12-03T01:38:20.342Z,13.19
2018-12-03T01:39:20.338Z,13.05
2018-12-03T01:40:20.337Z,13.13
2018-12-03T01:41:20.328Z,13.00
2018-12-03T01:42:20.335Z,13.05
2018-12-03T01:43:20.323Z,13.03
2018-12-03T01:44:20.318Z,13.04
2018-12-03T01:45:20.312Z,13.01
2018-12-03T01:46:20.310Z,12.98
2018-12-03T01:47:20.304Z,13.05
2018-12-03T01:48:20.300Z,13.00
2018-12-03T01:49:20.297Z,13.03
2018-12-03T01:50:20.293Z,13.03
2018-12-03T01:51:20.287Z,13.01
2018-12-03T01:52:20.284Z,13.04
2018-12-03T01:53:20.280Z,13.05
2018-12-03T01:54:20.276Z,13.04
2018-12-03T01:55:20.270Z,13.05
2018-12-03T01:56:20.275Z,13.05
2018-12-03T01:57:20.263Z,13.05
2018-12-03T01:58:20.263Z,13.01
2018-12-03T01:59:20.253Z,13.18
2018-12-03T02:00:20.250Z,13.05
2018-12-03T02:01:20.245Z,13.12
2018-12-03T02:02:20.245Z,13.12
2018-12-03T02:03:20.237Z,13.09
2018-12-03T02:04:20.232Z,13.11
2018-12-03T02:05:20.230Z,13.16
2018-12-03T02:06:20.225Z,13.16
2018-12-03T02:07:20.225Z,13.09
2018-12-03T02:08:20.215Z,13.20
2018-12-03T02:09:20.211Z,13.15
2018-12-03T02:10:20.214Z,13.16
2018-12-03T02:11:20.204Z,13.20
2018-12-03T02:12:20.200Z,13.23
2018-12-03T02:13:20.197Z,13.20
2018-12-03T02:14:20.193Z,13.25
2018-12-03T02:15:20.187Z,13.23
2018-12-03T02:16:20.188Z,13.20
2018-12-03T02:17:20.179Z,13.27
2018-12-03T02:18:20.175Z,13.30
2018-12-03T02:19:20.174Z,13.23
2018-12-03T02:20:20.165Z,13.20
2018-12-03T02:21:20.162Z,13.30
2018-12-03T02:22:20.159Z,13.22
2018-12-03T02:23:20.153Z,13.23
2018-12-03T02:24:20.151Z,13.23
2018-12-03T02:25:20.147Z,13.19
2018-12-03T02:26:20.144Z,13.20
2018-12-03T02:27:20.140Z,13.30
2018-12-03T02:28:20.136Z,13.19
2018-12-03T02:29:20.169Z,13.27
2018-12-03T02:30:20.131Z,13.19
2018-12-03T02:31:20.123Z,13.20
2018-12-03T02:32:20.116Z,13.22
2018-12-03T02:33:20.132Z,13.20
2018-12-03T02:34:20.115Z,13.27
2018-12-03T02:35:20.105Z,13.22
2018-12-03T02:36:20.104Z,13.25
2018-12-03T02:37:20.098Z,13.18
2018-12-03T02:38:20.097Z,13.23
2018-12-03T02:39:20.091Z,13.20
2018-12-03T02:40:20.085Z,13.23
2018-12-03T02:41:20.080Z,13.20
2018-12-03T02:42:20.076Z,13.27
2018-12-03T02:43:20.070Z,13.25
2018-12-03T02:44:20.069Z,13.23
2018-12-03T02:45:20.062Z,13.30
2018-12-03T02:46:20.085Z,13.23
2018-12-03T02:47:20.054Z,13.33
2018-12-03T02:48:20.050Z,13.38
2018-12-03T02:49:20.046Z,13.27
2018-12-03T02:50:20.045Z,13.25
2018-12-03T02:51:20.039Z,13.25
2018-12-03T02:52:20.038Z,13.20
2018-12-03T02:53:20.030Z,13.22
2018-12-03T02:54:20.027Z,13.23
2018-12-03T02:55:20.022Z,13.23
2018-12-03T02:56:20.021Z,13.30
2018-12-03T02:57:20.012Z,13.20
2018-12-03T02:58:20.011Z,13.27
2018-12-03T02:59:20.009Z,13.23
2018-12-03T03:00:20.004Z,13.22
2018-12-03T03:01:19.996Z,13.18
2018-12-03T03:02:19.994Z,13.22
2018-12-03T03:03:19.989Z,13.18
2018-12-03T03:04:19.984Z,13.23
2018-12-03T03:05:19.981Z,13.18
2018-12-03T03:06:19.980Z,13.19
2018-12-03T03:07:19.972Z,13.19
2018-12-03T03:08:19.969Z,13.20
2018-12-03T03:09:19.970Z,13.18
2018-12-03T03:10:19.958Z,13.22
2018-12-03T03:11:20.006Z,13.15
2018-12-03T03:12:19.951Z,13.19
2018-12-03T03:13:19.947Z,13.25
2018-12-03T03:14:19.943Z,13.15
2018-12-03T03:15:19.941Z,13.09
2018-12-03T03:16:19.933Z,13.16
2018-12-03T03:17:19.930Z,13.19
2018-12-03T03:18:19.927Z,13.16
2018-12-03T03:19:19.922Z,13.27
2018-12-03T03:20:19.917Z,13.27
2018-12-03T03:21:19.912Z,13.16
2018-12-03T03:22:19.910Z,13.13
2018-12-03T03:23:19.905Z,13.22
2018-12-03T03:24:19.898Z,13.19
2018-12-03T03:25:19.896Z,13.20
2018-12-03T03:26:19.904Z,13.11
2018-12-03T03:27:19.892Z,13.22
2018-12-03T03:28:19.883Z,13.16
2018-12-03T03:29:19.881Z,13.16
2018-12-03T03:30:19.876Z,13.22
2018-12-03T03:31:19.878Z,13.13
2018-12-03T03:32:19.881Z,13.25
2018-12-03T03:33:20.073Z,13.19
2018-12-03T03:34:19.867Z,13.22
2018-12-03T03:35:19.851Z,13.19
2018-12-03T03:36:19.849Z,13.20
2018-12-03T03:37:19.844Z,13.15
2018-12-03T03:38:19.842Z,13.15
2018-12-03T03:39:19.834Z,13.18
2018-12-03T03:40:19.831Z,13.15
2018-12-03T03:41:19.827Z,13.19
2018-12-03T03:42:19.822Z,13.18
2018-12-03T03:43:19.819Z,13.15
2018-12-03T03:44:19.813Z,13.23
2018-12-03T03:45:19.812Z,13.19
2018-12-03T03:46:19.806Z,13.16
2018-12-03T03:47:19.801Z,13.18
2018-12-03T03:48:19.796Z,13.18
2018-12-03T03:49:19.793Z,13.20
2018-12-03T03:50:19.789Z,13.19
2018-12-03T03:51:19.784Z,13.16
2018-12-03T03:52:19.781Z,13.19
2018-12-03T03:53:19.775Z,13.16
2018-12-03T03:54:25.070Z,13.15
2018-12-03T03:55:19.768Z,13.12
2018-12-03T03:56:19.764Z,13.27
2018-12-03T03:57:19.762Z,13.15
2018-12-03T03:58:19.754Z,13.25
2018-12-03T03:59:19.751Z,13.22
2018-12-03T04:00:19.752Z,13.08
2018-12-03T04:01:19.742Z,13.19
2018-12-03T04:02:19.737Z,13.12
2018-12-03T04:03:19.732Z,13.18
2018-12-03T04:04:19.726Z,13.12
2018-12-03T04:05:19.730Z,13.08
2018-12-03T04:06:19.720Z,13.01
2018-12-03T04:07:19.714Z,13.25
2018-12-03T04:08:19.711Z,13.16
2018-12-03T04:09:19.714Z,13.12
2018-12-03T04:10:19.704Z,13.18
2018-12-03T04:11:19.698Z,13.12
2018-12-03T04:12:19.692Z,13.09
2018-12-03T04:13:19.691Z,13.12
2018-12-03T04:14:19.687Z,13.09
2018-12-03T04:15:19.682Z,13.20
2018-12-03T04:16:19.687Z,13.08
2018-12-03T04:17:19.674Z,13.05
2018-12-03T04:18:34.345Z,13.05
2018-12-03T04:19:19.665Z,13.15
2018-12-03T04:20:19.659Z,13.11
2018-12-03T04:21:19.657Z,13.18
2018-12-03T04:22:19.657Z,13.01
2018-12-03T04:23:19.646Z,12.98
2018-12-03T04:24:19.643Z,13.12
2018-12-03T04:25:19.639Z,13.03
2018-12-03T04:26:19.636Z,13.04
2018-12-03T04:27:19.629Z,13.08
2018-12-03T04:28:19.627Z,13.09
2018-12-03T04:29:19.624Z,13.04
2018-12-03T04:30:19.623Z,13.01
2018-12-03T04:31:19.611Z,13.00
2018-12-03T04:32:19.609Z,12.97
2018-12-03T04:33:19.603Z,13.04
2018-12-03T04:34:19.599Z,12.94
2018-12-03T04:35:19.597Z,12.97
2018-12-03T04:36:19.591Z,12.94
2018-12-03T04:37:20.803Z,13.00
2018-12-03T04:38:19.585Z,12.95
2018-12-03T04:39:19.583Z,12.97
2018-12-03T04:40:19.580Z,12.95
2018-12-03T04:41:19.570Z,12.95
2018-12-03T04:42:19.569Z,12.95
2018-12-03T04:43:19.562Z,12.94
2018-12-03T04:44:19.558Z,12.93
2018-12-03T04:45:19.584Z,12.97
2018-12-03T04:46:19.551Z,12.95
2018-12-03T04:47:19.544Z,12.91
2018-12-03T04:48:19.542Z,12.91
2018-12-03T04:49:19.609Z,12.97
2018-12-03T04:50:19.533Z,12.83
2018-12-03T04:51:19.526Z,12.87
2018-12-03T04:52:19.525Z,12.94
2018-12-03T04:53:19.519Z,12.91
2018-12-03T04:54:19.511Z,12.91
2018-12-03T04:55:19.515Z,12.86
2018-12-03T04:56:19.505Z,12.90
2018-12-03T04:57:19.502Z,12.85
2018-12-03T04:58:19.498Z,12.82
2018-12-03T04:59:19.494Z,12.86
2018-12-03T05:00:19.485Z,12.83
2018-12-03T05:01:19.499Z,12.83
2018-12-03T05:02:19.481Z,12.82
2018-12-03T05:03:19.475Z,12.78
2018-12-03T05:04:19.471Z,12.87
2018-12-03T05:05:19.465Z,12.75
2018-12-03T05:06:19.463Z,12.73
2018-12-03T05:07:19.461Z,12.68
2018-12-03T05:08:19.467Z,12.68
2018-12-03T05:09:19.453Z,12.70
2018-12-03T05:10:19.445Z,12.68
2018-12-03T05:11:19.441Z,12.68
2018-12-03T05:12:19.439Z,12.68
2018-12-03T05:13:19.433Z,12.76
2018-12-03T05:14:19.429Z,12.67
2018-12-03T05:15:19.426Z,12.73
2018-12-03T05:16:19.421Z,12.64
2018-12-03T05:17:19.415Z,12.75
2018-12-03T05:18:19.412Z,12.70
2018-12-03T05:19:19.405Z,12.75
2018-12-03T05:20:19.402Z,12.64
2018-12-03T05:21:19.398Z,12.62
2018-12-03T05:22:19.407Z,12.68
2018-12-03T05:23:19.429Z,12.70
2018-12-03T05:24:19.384Z,12.62
2018-12-03T05:25:19.763Z,12.70
2018-12-03T05:26:19.375Z,12.72
2018-12-03T05:27:19.372Z,12.70
2018-12-03T05:28:19.407Z,12.68
2018-12-03T05:29:19.362Z,12.65
2018-12-03T05:30:19.359Z,12.70
2018-12-03T05:31:19.356Z,12.60
2018-12-03T05:32:19.350Z,12.70
2018-12-03T05:33:19.343Z,12.72
2018-12-03T05:34:19.389Z,12.68
2018-12-03T05:35:19.336Z,12.62
2018-12-03T05:36:19.332Z,12.62
2018-12-03T05:37:19.331Z,12.68
2018-12-03T05:38:19.322Z,12.62
2018-12-03T05:39:19.317Z,12.61
2018-12-03T05:40:19.316Z,12.72
2018-12-03T05:41:19.314Z,12.68
2018-12-03T05:42:19.308Z,12.64
2018-12-03T05:43:19.300Z,12.67
2018-12-03T05:44:19.298Z,12.62
2018-12-03T05:45:19.294Z,12.61
2018-12-03T05:46:19.291Z,12.64
2018-12-03T05:47:19.284Z,12.61
2018-12-03T05:48:19.280Z,12.60
2018-12-03T05:49:19.277Z,12.61
2018-12-03T05:50:19.286Z,12.58
2018-12-03T05:51:19.275Z,12.58
2018-12-03T05:52:19.266Z,12.50
2018-12-03T05:53:19.258Z,12.47
2018-12-03T05:54:19.255Z,12.55
2018-12-03T05:55:19.250Z,12.62
2018-12-03T05:56:19.247Z,12.53
2018-12-03T05:57:19.242Z,12.58
2018-12-03T05:58:19.239Z,12.49
2018-12-03T05:59:19.231Z,12.55
2018-12-03T06:00:19.228Z,12.55
2018-12-03T06:01:19.224Z,12.61
2018-12-03T06:02:19.234Z,12.64
2018-12-03T06:03:19.214Z,12.57
2018-12-03T06:04:19.227Z,12.61
2018-12-03T06:05:19.208Z,12.60
2018-12-03T06:06:19.202Z,12.64
2018-12-03T06:07:19.197Z,12.61
2018-12-03T06:08:19.193Z,12.62
2018-12-03T06:09:19.187Z,12.67
2018-12-03T06:10:19.185Z,12.58
2018-12-03T06:11:19.178Z,12.67
2018-12-03T06:12:19.176Z,12.54
2018-12-03T06:13:19.170Z,12.62
2018-12-03T06:14:19.177Z,12.61
2018-12-03T06:15:19.162Z,12.65
2018-12-03T06:16:19.179Z,12.61
2018-12-03T06:17:19.151Z,12.75
2018-12-03T06:18:19.150Z,12.57
2018-12-03T06:19:19.144Z,12.62
2018-12-03T06:20:19.142Z,12.64
2018-12-03T06:21:19.145Z,12.64
2018-12-03T06:22:19.133Z,12.67
2018-12-03T06:23:19.129Z,12.62
2018-12-03T06:24:19.127Z,12.57
2018-12-03T06:25:19.215Z,12.57
2018-12-03T06:26:19.119Z,12.49
2018-12-03T06:27:19.113Z,12.46
2018-12-03T06:28:19.105Z,12.47
2018-12-03T06:29:19.101Z,12.46
2018-12-03T06:30:19.102Z,12.47
2018-12-03T06:31:19.091Z,12.49
2018-12-03T06:32:19.086Z,12.47
2018-12-03T06:33:19.084Z,12.50
2018-12-03T06:34:19.186Z,12.47
2018-12-03T06:35:19.097Z,12.47
2018-12-03T06:36:19.071Z,12.46
2018-12-03T06:37:19.066Z,12.50
2018-12-03T06:38:19.065Z,12.45
2018-12-03T06:39:19.054Z,12.47
2018-12-03T06:40:19.054Z,12.53
2018-12-03T06:41:19.050Z,12.62
2018-12-03T06:42:19.043Z,12.62
2018-12-03T06:43:19.039Z,12.70
2018-12-03T06:44:19.035Z,12.79
2018-12-03T06:45:19.028Z,12.87
2018-12-03T06:46:19.026Z,12.91
2018-12-03T06:47:19.032Z,13.01
2018-12-03T06:48:19.212Z,13.00
2018-12-03T06:49:19.013Z,13.00
2018-12-03T06:50:19.009Z,13.12
2018-12-03T06:51:19.004Z,13.18
2018-12-03T06:52:19.017Z,13.09
2018-12-03T06:53:18.995Z,13.11
2018-12-03T06:54:18.990Z,13.08
2018-12-03T06:55:18.987Z,13.01
2018-12-03T06:56:18.984Z,13.08
2018-12-03T06:57:18.977Z,13.19
2018-12-03T06:58:18.974Z,13.18
2018-12-03T06:59:18.969Z,13.11
2018-12-03T07:00:18.971Z,13.12
2018-12-03T07:01:18.959Z,13.05
2018-12-03T07:02:19.073Z,13.15
2018-12-03T07:03:18.951Z,13.15
2018-12-03T07:04:18.949Z,13.12
2018-12-03T07:05:18.946Z,13.08
2018-12-03T07:06:18.975Z,13.19
2018-12-03T07:07:18.936Z,13.25
2018-12-03T07:08:18.930Z,13.15
2018-12-03T07:09:18.932Z,13.16
2018-12-03T07:10:18.933Z,13.25
2018-12-03T07:11:18.924Z,13.20
2018-12-03T07:12:18.912Z,13.25
2018-12-03T07:13:18.909Z,13.25
2018-12-03T07:14:18.909Z,13.31
2018-12-03T07:15:18.900Z,13.41
2018-12-03T07:16:18.901Z,13.38
2018-12-03T07:17:18.892Z,13.41
2018-12-03T07:18:18.889Z,13.46
2018-12-03T07:19:18.885Z,13.42
2018-12-03T07:20:18.887Z,13.46
2018-12-03T07:21:18.876Z,13.47
2018-12-03T07:22:18.875Z,13.42
2018-12-03T07:23:18.867Z,13.46
2018-12-03T07:24:18.863Z,13.47
2018-12-03T07:25:18.863Z,13.49
2018-12-03T07:26:18.858Z,13.54
2018-12-03T07:27:19.769Z,13.44
2018-12-03T07:28:18.852Z,13.47
2018-12-03T07:29:18.851Z,13.49
2018-12-03T07:30:18.852Z,13.49
2018-12-03T07:31:18.835Z,13.56
2018-12-03T07:32:18.831Z,13.42
2018-12-03T07:33:18.830Z,13.42
2018-12-03T07:34:18.823Z,13.50
2018-12-03T07:35:18.820Z,13.52
2018-12-03T07:36:18.813Z,13.49
2018-12-03T07:37:18.812Z,13.52
2018-12-03T07:38:18.807Z,13.46
2018-12-03T07:39:18.802Z,13.59
2018-12-03T07:40:18.801Z,13.62
2018-12-03T07:41:18.794Z,13.60
2018-12-03T07:42:18.790Z,13.59
2018-12-03T07:43:18.787Z,13.59
2018-12-03T07:44:18.792Z,13.60
2018-12-03T07:45:18.777Z,13.57
2018-12-03T07:46:18.773Z,13.67
2018-12-03T07:47:18.767Z,13.59
2018-12-03T07:48:18.767Z,13.56
2018-12-03T07:49:18.763Z,13.57
2018-12-03T07:50:18.759Z,13.59
2018-12-03T07:51:18.775Z,13.59
2018-12-03T07:52:18.756Z,13.67
2018-12-03T07:53:18.747Z,13.62
2018-12-03T07:54:18.750Z,13.60
2018-12-03T07:55:18.741Z,13.60
2018-12-03T07:56:19.271Z,13.57
2018-12-03T07:57:18.730Z,13.62
2018-12-03T07:58:18.729Z,13.59
2018-12-03T07:59:19.112Z,13.70
2018-12-03T08:00:19.408Z,13.68
2018-12-03T08:01:18.789Z,13.68
2018-12-03T08:02:18.714Z,13.67
2018-12-03T08:03:18.710Z,13.68
2018-12-03T08:04:18.704Z,13.75
2018-12-03T08:05:18.700Z,13.71
2018-12-03T08:06:18.698Z,13.65
2018-12-03T08:07:18.695Z,13.70
2018-12-03T08:08:18.694Z,13.70
2018-12-03T08:09:18.686Z,13.71
2018-12-03T08:10:18.682Z,13.70
2018-12-03T08:11:18.677Z,13.72
2018-12-03T08:12:18.675Z,13.67
2018-12-03T08:13:18.671Z,13.70
2018-12-03T08:14:18.670Z,13.74
2018-12-03T08:15:18.664Z,13.70
2018-12-03T08:16:18.659Z,13.67
2018-12-03T08:17:18.655Z,13.71
2018-12-03T08:18:18.653Z,13.71
2018-12-03T08:19:18.650Z,13.85
2018-12-03T08:20:18.648Z,13.75
2018-12-03T08:21:18.649Z,13.79
2018-12-03T08:22:18.647Z,13.77
2018-12-03T08:23:18.633Z,13.85
2018-12-03T08:24:18.629Z,13.87
2018-12-03T08:25:18.671Z,13.85
2018-12-03T08:26:18.623Z,13.89
2018-12-03T08:27:18.618Z,13.86
2018-12-03T08:28:18.617Z,13.86
2018-12-03T08:29:18.612Z,13.92
2018-12-03T08:30:18.608Z,13.85
2018-12-03T08:31:18.607Z,13.89
2018-12-03T08:32:18.602Z,13.83
2018-12-03T08:33:18.596Z,13.85
2018-12-03T08:34:18.593Z,13.83
2018-12-03T08:35:18.590Z,13.86
2018-12-03T08:36:18.587Z,13.90
2018-12-03T08:37:18.594Z,13.96
2018-12-03T08:38:18.602Z,13.90
2018-12-03T08:39:18.573Z,13.90
2018-12-03T08:40:18.571Z,13.93
2018-12-03T08:41:18.582Z,13.95
2018-12-03T08:42:18.563Z,13.92
2018-12-03T08:43:18.560Z,13.96
2018-12-03T08:44:18.571Z,13.92
2018-12-03T08:45:18.550Z,13.93
2018-12-03T08:46:18.551Z,13.99
2018-12-03T08:47:18.546Z,13.97
2018-12-03T08:48:18.544Z,13.97
2018-12-03T08:49:18.539Z,14.03
2018-12-03T08:50:18.537Z,14.03
2018-12-03T08:51:18.535Z,14.04
2018-12-03T08:52:18.528Z,13.93
2018-12-03T08:53:18.533Z,14.03
2018-12-03T08:54:18.519Z,13.95
2018-12-03T08:55:18.519Z,13.93
2018-12-03T08:56:18.512Z,14.05
2018-12-03T08:57:18.510Z,13.93
2018-12-03T08:58:18.510Z,13.90
2018-12-03T08:59:18.512Z,13.97
2018-12-03T09:00:18.679Z,13.97
2018-12-03T09:01:18.491Z,14.03
2018-12-03T09:02:18.489Z,14.03
2018-12-03T09:03:18.491Z,14.08
2018-12-03T09:04:18.484Z,14.08
2018-12-03T09:05:18.479Z,14.14
2018-12-03T09:06:18.475Z,14.10
2018-12-03T09:07:18.475Z,14.12
2018-12-03T09:08:18.467Z,14.10
2018-12-03T09:09:18.478Z,14.20
2018-12-03T09:10:18.472Z,14.26
2018-12-03T09:11:18.458Z,14.30
2018-12-03T09:12:18.454Z,14.32
2018-12-03T09:13:18.451Z,14.28
2018-12-03T09:14:18.449Z,14.37
2018-12-03T09:15:18.444Z,14.35
2018-12-03T09:16:18.474Z,14.44
2018-12-03T09:17:18.449Z,14.48
2018-12-03T09:18:18.437Z,14.51
2018-12-03T09:19:18.433Z,14.50
2018-12-03T09:20:18.440Z,14.45
2018-12-03T09:21:18.426Z,14.58
2018-12-03T09:22:18.426Z,14.44
2018-12-03T09:23:18.417Z,14.54
2018-12-03T09:24:18.414Z,14.50
2018-12-03T09:25:18.413Z,14.53
2018-12-03T09:26:18.411Z,14.53
2018-12-03T09:27:18.404Z,14.60
2018-12-03T09:28:18.401Z,14.48
2018-12-03T09:29:18.399Z,14.51
2018-12-03T09:30:18.396Z,14.48
2018-12-03T09:31:18.397Z,14.50
2018-12-03T09:32:18.390Z,14.53
2018-12-03T09:33:18.385Z,14.50
2018-12-03T09:34:18.385Z,14.47
2018-12-03T09:35:18.381Z,14.47
2018-12-03T09:36:18.379Z,14.47
2018-12-03T09:37:18.378Z,14.50
2018-12-03T09:38:18.372Z,14.47
2018-12-03T09:39:18.371Z,14.51
2018-12-03T09:40:18.367Z,14.43
2018-12-03T09:41:18.361Z,14.47
2018-12-03T09:42:18.358Z,14.50
2018-12-03T09:43:18.352Z,14.51
2018-12-03T09:44:18.350Z,14.47
2018-12-03T09:45:18.360Z,14.48
2018-12-03T09:46:18.348Z,14.48
2018-12-03T09:47:18.341Z,14.55
2018-12-03T09:48:18.338Z,14.54
2018-12-03T09:49:18.338Z,14.53
2018-12-03T09:50:18.333Z,14.54
2018-12-03T09:51:18.337Z,14.58
2018-12-03T09:52:18.327Z,14.48
2018-12-03T09:53:18.321Z,14.51
2018-12-03T09:54:18.321Z,14.55
2018-12-03T09:55:18.321Z,14.62
2018-12-03T09:56:18.311Z,14.60
2018-12-03T09:57:18.310Z,14.63
2018-12-03T09:58:18.306Z,14.60
2018-12-03T09:59:18.301Z,14.59
2018-12-03T10:00:18.304Z,14.60
2018-12-03T10:01:18.293Z,14.65
2018-12-03T10:02:18.290Z,14.72
2018-12-03T10:03:18.288Z,14.77
2018-12-03T10:04:18.284Z,14.73
2018-12-03T10:05:18.284Z,14.77
2018-12-03T10:06:18.278Z,14.73
2018-12-03T10:07:18.275Z,14.77
2018-12-03T10:08:18.272Z,14.69
2018-12-03T10:09:18.267Z,14.70
2018-12-03T10:10:18.301Z,14.77
2018-12-03T10:11:18.270Z,14.81
2018-12-03T10:12:18.394Z,14.88
2018-12-03T10:13:18.271Z,14.88
2018-12-03T10:14:18.273Z,14.88
2018-12-03T10:15:18.248Z,14.96
2018-12-03T10:16:18.245Z,14.97
2018-12-03T10:17:18.242Z,15.02
2018-12-03T10:18:18.254Z,15.06
2018-12-03T10:19:18.238Z,14.97
2018-12-03T10:20:18.233Z,15.07
2018-12-03T10:21:18.228Z,15.00
2018-12-03T10:22:18.225Z,15.07
2018-12-03T10:23:18.222Z,15.11
2018-12-03T10:24:18.222Z,15.10
2018-12-03T10:25:18.219Z,15.09
2018-12-03T10:26:18.219Z,15.06
2018-12-03T10:27:18.215Z,15.04
2018-12-03T10:28:18.209Z,15.04
2018-12-03T10:29:18.205Z,15.07
2018-12-03T10:30:18.204Z,15.04
2018-12-03T10:31:18.208Z,15.07
2018-12-03T10:32:18.200Z,15.04
2018-12-03T10:33:18.194Z,15.04
2018-12-03T10:34:18.188Z,15.00
2018-12-03T10:35:18.190Z,15.07
2018-12-03T10:36:18.189Z,15.07
2018-12-03T10:37:18.395Z,15.11
2018-12-03T10:38:18.177Z,15.14
2018-12-03T10:39:18.175Z,15.18
2018-12-03T10:40:18.172Z,15.18
2018-12-03T10:41:18.324Z,15.11
2018-12-03T10:42:18.174Z,15.17
2018-12-03T10:43:18.168Z,15.25
2018-12-03T10:44:18.162Z,15.22
2018-12-03T10:45:18.349Z,15.27
2018-12-03T10:46:18.193Z,15.19
2018-12-03T10:47:18.161Z,15.28
2018-12-03T10:48:18.150Z,15.25
2018-12-03T10:49:18.239Z,15.27
2018-12-03T10:50:22.285Z,15.18
2018-12-03T10:51:18.144Z,15.14
2018-12-03T10:52:18.138Z,15.25
2018-12-03T10:53:18.134Z,15.21
2018-12-03T10:54:18.134Z,15.24
2018-12-03T10:55:18.131Z,15.24
2018-12-03T10:56:18.403Z,15.27
2018-12-03T10:57:18.128Z,15.17
2018-12-03T10:58:18.855Z,15.22
2018-12-03T10:59:18.120Z,15.24
2018-12-03T11:00:18.118Z,15.14
2018-12-03T11:01:18.113Z,15.21
2018-12-03T11:02:18.111Z,15.09
2018-12-03T11:03:18.110Z,15.15
2018-12-03T11:04:18.105Z,15.14
2018-12-03T11:05:18.329Z,15.09
2018-12-03T11:06:18.106Z,15.10
2018-12-03T11:07:18.098Z,15.17
2018-12-03T11:08:18.114Z,15.15
2018-12-03T11:09:18.096Z,15.18
2018-12-03T11:10:18.089Z,15.17
2018-12-03T11:11:18.085Z,15.15
2018-12-03T11:12:18.093Z,15.19
2018-12-03T11:13:18.087Z,15.21
2018-12-03T11:14:18.079Z,15.24
2018-12-03T11:15:18.082Z,15.22
2018-12-03T11:16:18.075Z,15.24
2018-12-03T11:17:18.098Z,15.29
2018-12-03T11:18:18.072Z,15.31
2018-12-03T11:19:18.100Z,15.40
2018-12-03T11:20:18.066Z,15.39
2018-12-03T11:21:18.099Z,15.43
2018-12-03T11:22:18.475Z,15.33
2018-12-03T11:23:18.056Z,15.35
2018-12-03T11:24:18.369Z,15.35
2018-12-03T11:25:18.061Z,15.29
2018-12-03T11:26:18.058Z,15.35
2018-12-03T11:27:18.046Z,15.29
2018-12-03T11:28:18.046Z,15.29
2018-12-03T11:29:18.051Z,15.33
2018-12-03T11:30:18.116Z,15.33
2018-12-03T11:31:18.046Z,15.37
2018-12-03T11:32:18.078Z,15.33
2018-12-03T11:33:18.034Z,15.35
2018-12-03T11:34:18.030Z,15.39
2018-12-03T11:35:18.027Z,15.33
2018-12-03T11:36:18.177Z,15.39
2018-12-03T11:37:18.019Z,15.39
2018-12-03T11:38:18.017Z,15.42
2018-12-03T11:39:18.015Z,15.44
2018-12-03T11:40:18.020Z,15.40
2018-12-03T11:41:18.010Z,15.42
2018-12-03T11:42:18.019Z,15.44
2018-12-03T11:43:18.009Z,15.57
2018-12-03T11:44:18.003Z,15.54
2018-12-03T11:45:18.005Z,15.55
2018-12-03T11:46:17.995Z,15.59
2018-12-03T11:47:18.047Z,15.59
2018-12-03T11:48:17.992Z,15.62
2018-12-03T11:49:17.998Z,15.55
2018-12-03T11:50:17.991Z,15.61
2018-12-03T11:51:17.989Z,15.58
2018-12-03T11:52:17.980Z,15.65
2018-12-03T11:53:18.451Z,15.61
2018-12-03T11:54:18.082Z,15.64
2018-12-03T11:55:17.976Z,15.54
2018-12-03T11:56:17.972Z,15.54
2018-12-03T11:57:17.970Z,15.52
2018-12-03T11:58:17.969Z,15.57
2018-12-03T11:59:17.967Z,15.49
2018-12-03T12:00:17.987Z,15.51
2018-12-03T12:01:17.989Z,15.42
2018-12-03T12:02:17.974Z,15.43
2018-12-03T12:03:17.968Z,15.47
2018-12-03T12:04:17.986Z,15.40
2018-12-03T12:05:17.950Z,15.40
2018-12-03T12:06:17.956Z,15.39
2018-12-03T12:07:18.197Z,15.27
2018-12-03T12:08:17.949Z,15.33
2018-12-03T12:09:21.038Z,15.22
2018-12-03T12:10:17.978Z,15.24
2018-12-03T12:11:17.951Z,15.17
2018-12-03T12:12:17.931Z,15.19
2018-12-03T12:13:17.933Z,15.15
2018-12-03T12:14:17.930Z,15.11
2018-12-03T12:15:17.926Z,15.04
2018-12-03T12:16:17.929Z,15.04
2018-12-03T12:17:17.924Z,15.00
2018-12-03T12:18:17.926Z,14.91
2018-12-03T12:19:17.964Z,14.85
2018-12-03T12:20:17.912Z,14.84
2018-12-03T12:21:17.909Z,14.84
2018-12-03T12:22:17.910Z,14.78
2018-12-03T12:23:17.902Z,14.72
2018-12-03T12:24:17.904Z,14.78
2018-12-03T12:25:17.898Z,14.73
2018-12-03T12:26:17.896Z,14.72
2018-12-03T12:27:17.894Z,14.81
2018-12-03T12:28:17.902Z,14.72
2018-12-03T12:29:17.892Z,14.68
2018-12-03T12:30:17.885Z,14.68
2018-12-03T12:31:17.904Z,14.63
2018-12-03T12:32:17.939Z,14.59
2018-12-03T12:33:18.224Z,14.66
2018-12-03T12:34:17.874Z,14.62
2018-12-03T12:35:17.889Z,14.65
2018-12-03T12:36:17.933Z,14.65
2018-12-03T12:37:17.862Z,14.66
2018-12-03T12:38:17.859Z,14.63
2018-12-03T12:39:17.862Z,14.62
2018-12-03T12:40:17.857Z,14.68
2018-12-03T12:41:18.056Z,14.65
2018-12-03T12:42:17.853Z,14.63
2018-12-03T12:43:17.846Z,14.66
2018-12-03T12:44:17.848Z,14.66
2018-12-03T12:45:17.844Z,14.59
2018-12-03T12:46:17.861Z,14.58
2018-12-03T12:47:17.832Z,14.60
2018-12-03T12:48:17.832Z,14.54
2018-12-03T12:49:17.851Z,14.50
2018-12-03T12:50:17.832Z,14.55
2018-12-03T12:51:17.822Z,14.54
2018-12-03T12:52:17.821Z,14.51